sensor_id;sensor_type;location;lat;lon;timestamp;P1;durP1;ratioP1;P2;durP2;ratioP2
7989;SDS011;4040;42.848;23.034;2023-04-29T00:08:50;6.57;;;3.27;;
7989;SDS011;4040;42.848;23.034;2023-04-29T00:14:39;6.13;;;3.13;;
7989;SDS011;4040;42.848;23.034;2023-04-29T00:20:29;5.40;;;3.37;;
7989;SDS011;4040;42.848;23.034;2023-04-29T00:26:19;5.97;;;2.90;;
7989;SDS011;4040;42.848;23.034;2023-04-29T00:32:08;4.90;;;3.47;;
7989;SDS011;4040;42.848;23.034;2023-04-29T00:37:56;6.03;;;3.67;;
7989;SDS011;4040;42.848;23.034;2023-04-29T00:43:47;3.13;;;2.80;;
7989;SDS011;4040;42.848;23.034;2023-04-29T00:49:36;5.37;;;3.10;;
7989;SDS011;4040;42.848;23.034;2023-04-29T00:55:25;10.93;;;3.97;;
7989;SDS011;4040;42.848;23.034;2023-04-29T01:01:17;6.30;;;3.40;;
7989;SDS011;4040;42.848;23.034;2023-04-29T01:11:09;3.33;;;3.03;;
7989;SDS011;4040;42.848;23.034;2023-04-29T01:17:04;2.93;;;2.63;;
7989;SDS011;4040;42.848;23.034;2023-04-29T01:22:56;3.53;;;2.83;;
7989;SDS011;4040;42.848;23.034;2023-04-29T01:28:53;5.07;;;3.90;;
7989;SDS011;4040;42.848;23.034;2023-04-29T01:34:52;3.47;;;2.83;;
7989;SDS011;4040;42.848;23.034;2023-04-29T01:40:46;3.73;;;2.73;;
7989;SDS011;4040;42.848;23.034;2023-04-29T01:46:48;3.83;;;2.27;;
7989;SDS011;4040;42.848;23.034;2023-04-29T01:52:39;3.87;;;2.30;;
7989;SDS011;4040;42.848;23.034;2023-04-29T01:58:28;2.90;;;2.40;;
7989;SDS011;4040;42.848;23.034;2023-04-29T02:04:18;2.63;;;2.10;;
7989;SDS011;4040;42.848;23.034;2023-04-29T02:10:37;3.23;;;2.67;;
7989;SDS011;4040;42.848;23.034;2023-04-29T02:16:25;4.70;;;2.83;;
7989;SDS011;4040;42.848;23.034;2023-04-29T02:22:15;4.70;;;2.70;;
7989;SDS011;4040;42.848;23.034;2023-04-29T02:28:04;2.90;;;2.60;;
7989;SDS011;4040;42.848;23.034;2023-04-29T02:33:53;5.43;;;2.40;;
7989;SDS011;4040;42.848;23.034;2023-04-29T02:39:43;4.47;;;2.70;;
7989;SDS011;4040;42.848;23.034;2023-04-29T02:45:32;4.87;;;3.97;;
7989;SDS011;4040;42.848;23.034;2023-04-29T02:51:20;4.47;;;3.50;;
7989;SDS011;4040;42.848;23.034;2023-04-29T02:57:10;4.37;;;3.57;;
7989;SDS011;4040;42.848;23.034;2023-04-29T03:02:59;3.10;;;2.80;;
7989;SDS011;4040;42.848;23.034;2023-04-29T03:08:48;3.93;;;3.20;;
7989;SDS011;4040;42.848;23.034;2023-04-29T03:14:38;4.87;;;3.50;;
7989;SDS011;4040;42.848;23.034;2023-04-29T03:20:26;7.40;;;4.53;;
7989;SDS011;4040;42.848;23.034;2023-04-29T03:26:15;6.27;;;4.00;;
7989;SDS011;4040;42.848;23.034;2023-04-29T03:32:06;5.43;;;3.50;;
7989;SDS011;4040;42.848;23.034;2023-04-29T03:37:54;3.90;;;3.10;;
7989;SDS011;4040;42.848;23.034;2023-04-29T03:43:43;3.10;;;2.77;;
7989;SDS011;4040;42.848;23.034;2023-04-29T03:49:33;18.47;;;12.50;;
7989;SDS011;4040;42.848;23.034;2023-04-29T03:55:22;7.23;;;3.87;;
7989;SDS011;4040;42.848;23.034;2023-04-29T04:01:10;7.57;;;4.87;;
7989;SDS011;4040;42.848;23.034;2023-04-29T04:07:01;5.07;;;3.33;;
7989;SDS011;4040;42.848;23.034;2023-04-29T04:17:11;7.50;;;4.10;;
7989;SDS011;4040;42.848;23.034;2023-04-29T04:23:02;10.47;;;5.07;;
7989;SDS011;4040;42.848;23.034;2023-04-29T04:28:50;8.93;;;5.80;;
7989;SDS011;4040;42.848;23.034;2023-04-29T04:34:39;6.37;;;3.67;;
7989;SDS011;4040;42.848;23.034;2023-04-29T04:40:29;7.40;;;3.90;;
7989;SDS011;4040;42.848;23.034;2023-04-29T04:46:17;6.77;;;3.60;;
7989;SDS011;4040;42.848;23.034;2023-04-29T04:52:06;8.90;;;6.77;;
7989;SDS011;4040;42.848;23.034;2023-04-29T04:57:56;8.73;;;5.50;;
7989;SDS011;4040;42.848;23.034;2023-04-29T05:03:45;8.20;;;4.50;;
7989;SDS011;4040;42.848;23.034;2023-04-29T05:09:34;11.13;;;5.80;;
7989;SDS011;4040;42.848;23.034;2023-04-29T05:19:46;16.50;;;6.90;;
7989;SDS011;4040;42.848;23.034;2023-04-29T05:25:34;8.10;;;5.20;;
7989;SDS011;4040;42.848;23.034;2023-04-29T05:31:23;6.40;;;3.77;;
7989;SDS011;4040;42.848;23.034;2023-04-29T05:37:15;6.77;;;4.63;;
7989;SDS011;4040;42.848;23.034;2023-04-29T05:43:04;10.20;;;5.93;;
7989;SDS011;4040;42.848;23.034;2023-04-29T05:48:53;16.30;;;8.77;;
7989;SDS011;4040;42.848;23.034;2023-04-29T05:54:43;34.13;;;14.70;;
7989;SDS011;4040;42.848;23.034;2023-04-29T06:00:31;16.30;;;8.97;;
7989;SDS011;4040;42.848;23.034;2023-04-29T06:06:20;13.83;;;6.60;;
7989;SDS011;4040;42.848;23.034;2023-04-29T06:12:10;13.50;;;6.10;;
7989;SDS011;4040;42.848;23.034;2023-04-29T06:22:21;6.07;;;4.83;;
7989;SDS011;4040;42.848;23.034;2023-04-29T06:28:12;6.23;;;4.30;;
7989;SDS011;4040;42.848;23.034;2023-04-29T06:34:00;5.88;;;3.40;;
7989;SDS011;4040;42.848;23.034;2023-04-29T06:39:49;5.05;;;3.60;;
7989;SDS011;4040;42.848;23.034;2023-04-29T06:45:39;4.68;;;3.53;;
7989;SDS011;4040;42.848;23.034;2023-04-29T06:51:28;3.85;;;3.47;;
7989;SDS011;4040;42.848;23.034;2023-04-29T06:57:17;5.10;;;3.53;;
7989;SDS011;4040;42.848;23.034;2023-04-29T07:03:08;5.60;;;3.60;;
7989;SDS011;4040;42.848;23.034;2023-04-29T07:08:57;3.85;;;3.10;;
7989;SDS011;4040;42.848;23.034;2023-04-29T07:14:46;4.50;;;3.00;;
7989;SDS011;4040;42.848;23.034;2023-04-29T07:24:48;4.38;;;3.10;;
7989;SDS011;4040;42.848;23.034;2023-04-29T07:30:40;5.95;;;3.08;;
7989;SDS011;4040;42.848;23.034;2023-04-29T07:36:29;6.93;;;4.10;;
7989;SDS011;4040;42.848;23.034;2023-04-29T07:42:20;6.25;;;3.40;;
7989;SDS011;4040;42.848;23.034;2023-04-29T07:48:08;6.47;;;3.10;;
7989;SDS011;4040;42.848;23.034;2023-04-29T07:53:57;12.88;;;4.60;;
7989;SDS011;4040;42.848;23.034;2023-04-29T07:59:47;9.63;;;5.82;;
7989;SDS011;4040;42.848;23.034;2023-04-29T08:05:38;4.65;;;3.80;;
7989;SDS011;4040;42.848;23.034;2023-04-29T08:11:29;6.72;;;3.90;;
7989;SDS011;4040;42.848;23.034;2023-04-29T08:17:19;6.20;;;4.05;;
7989;SDS011;4040;42.848;23.034;2023-04-29T08:27:29;5.47;;;3.60;;
7989;SDS011;4040;42.848;23.034;2023-04-29T08:33:20;5.27;;;2.97;;
7989;SDS011;4040;42.848;23.034;2023-04-29T08:39:09;3.50;;;3.20;;
7989;SDS011;4040;42.848;23.034;2023-04-29T08:44:57;7.85;;;3.30;;
7989;SDS011;4040;42.848;23.034;2023-04-29T08:50:58;4.68;;;3.58;;
7989;SDS011;4040;42.848;23.034;2023-04-29T08:56:48;4.07;;;2.92;;
7989;SDS011;4040;42.848;23.034;2023-04-29T09:02:40;5.65;;;3.42;;
7989;SDS011;4040;42.848;23.034;2023-04-29T09:08:33;5.13;;;3.47;;
7989;SDS011;4040;42.848;23.034;2023-04-29T09:14:22;4.43;;;3.30;;
7989;SDS011;4040;42.848;23.034;2023-04-29T09:20:25;5.10;;;3.55;;
7989;SDS011;4040;42.848;23.034;2023-04-29T09:30:45;5.47;;;3.55;;
7989;SDS011;4040;42.848;23.034;2023-04-29T09:36:35;8.52;;;4.75;;
7989;SDS011;4040;42.848;23.034;2023-04-29T09:42:24;9.45;;;4.50;;
7989;SDS011;4040;42.848;23.034;2023-04-29T09:48:15;4.32;;;3.20;;
7989;SDS011;4040;42.848;23.034;2023-04-29T09:54:04;5.38;;;3.97;;
7989;SDS011;4040;42.848;23.034;2023-04-29T10:00:08;5.82;;;3.30;;
7989;SDS011;4040;42.848;23.034;2023-04-29T10:05:59;4.82;;;3.33;;
7989;SDS011;4040;42.848;23.034;2023-04-29T10:11:48;5.53;;;3.13;;
7989;SDS011;4040;42.848;23.034;2023-04-29T10:17:41;4.30;;;3.10;;
7989;SDS011;4040;42.848;23.034;2023-04-29T10:23:34;3.67;;;2.95;;
7989;SDS011;4040;42.848;23.034;2023-04-29T10:33:46;5.65;;;3.28;;
7989;SDS011;4040;42.848;23.034;2023-04-29T10:39:41;9.48;;;5.05;;
7989;SDS011;4040;42.848;23.034;2023-04-29T10:45:35;6.25;;;4.55;;
7989;SDS011;4040;42.848;23.034;2023-04-29T10:51:28;4.00;;;2.88;;
7989;SDS011;4040;42.848;23.034;2023-04-29T10:57:20;5.38;;;2.72;;
7989;SDS011;4040;42.848;23.034;2023-04-29T11:03:09;5.90;;;3.28;;
7989;SDS011;4040;42.848;23.034;2023-04-29T11:09:34;3.22;;;2.30;;
7989;SDS011;4040;42.848;23.034;2023-04-29T11:15:26;3.42;;;2.05;;
7989;SDS011;4040;42.848;23.034;2023-04-29T11:21:19;2.63;;;1.38;;
7989;SDS011;4040;42.848;23.034;2023-04-29T11:27:08;2.75;;;1.85;;
7989;SDS011;4040;42.848;23.034;2023-04-29T11:32:58;3.47;;;2.22;;
7989;SDS011;4040;42.848;23.034;2023-04-29T11:38:46;4.93;;;1.73;;
7989;SDS011;4040;42.848;23.034;2023-04-29T11:44:35;2.33;;;1.70;;
7989;SDS011;4040;42.848;23.034;2023-04-29T11:50:26;2.65;;;1.75;;
7989;SDS011;4040;42.848;23.034;2023-04-29T11:56:20;3.85;;;2.28;;
7989;SDS011;4040;42.848;23.034;2023-04-29T12:02:11;3.78;;;2.58;;
7989;SDS011;4040;42.848;23.034;2023-04-29T12:08:02;20.90;;;11.65;;
7989;SDS011;4040;42.848;23.034;2023-04-29T12:13:50;4.95;;;2.88;;
7989;SDS011;4040;42.848;23.034;2023-04-29T12:19:41;3.47;;;2.17;;
7989;SDS011;4040;42.848;23.034;2023-04-29T12:25:31;3.40;;;1.80;;
7989;SDS011;4040;42.848;23.034;2023-04-29T12:35:01;1.80;;;1.60;;
7989;SDS011;4040;42.848;23.034;2023-04-29T12:40:52;2.20;;;1.98;;
7989;SDS011;4040;42.848;23.034;2023-04-29T12:46:41;3.03;;;1.90;;
7989;SDS011;4040;42.848;23.034;2023-04-29T12:52:30;1.40;;;1.30;;
7989;SDS011;4040;42.848;23.034;2023-04-29T12:58:20;2.05;;;1.45;;
7989;SDS011;4040;42.848;23.034;2023-04-29T13:04:08;6.28;;;2.83;;
7989;SDS011;4040;42.848;23.034;2023-04-29T13:09:57;3.05;;;1.77;;
7989;SDS011;4040;42.848;23.034;2023-04-29T13:15:47;1.67;;;1.58;;
7989;SDS011;4040;42.848;23.034;2023-04-29T13:21:37;5.65;;;1.90;;
7989;SDS011;4040;42.848;23.034;2023-04-29T13:27:25;4.70;;;2.10;;
7989;SDS011;4040;42.848;23.034;2023-04-29T13:37:18;2.03;;;1.67;;
7989;SDS011;4040;42.848;23.034;2023-04-29T13:43:07;1.75;;;1.60;;
7989;SDS011;4040;42.848;23.034;2023-04-29T13:48:55;2.83;;;1.70;;
7989;SDS011;4040;42.848;23.034;2023-04-29T13:54:46;9.38;;;2.20;;
7989;SDS011;4040;42.848;23.034;2023-04-29T14:00:34;6.20;;;3.42;;
7989;SDS011;4040;42.848;23.034;2023-04-29T14:06:24;6.47;;;3.40;;
7989;SDS011;4040;42.848;23.034;2023-04-29T14:12:15;8.18;;;5.38;;
7989;SDS011;4040;42.848;23.034;2023-04-29T14:18:03;3.47;;;2.20;;
7989;SDS011;4040;42.848;23.034;2023-04-29T14:23:53;5.03;;;2.95;;
7989;SDS011;4040;42.848;23.034;2023-04-29T14:29:44;9.73;;;3.70;;
7989;SDS011;4040;42.848;23.034;2023-04-29T14:39:44;1.83;;;1.73;;
7989;SDS011;4040;42.848;23.034;2023-04-29T14:45:34;6.10;;;2.38;;
7989;SDS011;4040;42.848;23.034;2023-04-29T14:51:23;3.75;;;3.03;;
7989;SDS011;4040;42.848;23.034;2023-04-29T14:57:12;3.90;;;2.60;;
7989;SDS011;4040;42.848;23.034;2023-04-29T15:03:03;3.17;;;1.70;;
7989;SDS011;4040;42.848;23.034;2023-04-29T15:08:52;2.92;;;2.22;;
7989;SDS011;4040;42.848;23.034;2023-04-29T15:14:41;5.18;;;3.00;;
7989;SDS011;4040;42.848;23.034;2023-04-29T15:20:31;3.13;;;2.30;;
7989;SDS011;4040;42.848;23.034;2023-04-29T15:26:19;2.95;;;2.40;;
7989;SDS011;4040;42.848;23.034;2023-04-29T15:32:08;6.82;;;3.83;;
7989;SDS011;4040;42.848;23.034;2023-04-29T15:42:20;11.55;;;7.00;;
7989;SDS011;4040;42.848;23.034;2023-04-29T15:48:09;17.38;;;11.23;;
7989;SDS011;4040;42.848;23.034;2023-04-29T15:53:57;12.52;;;10.43;;
7989;SDS011;4040;42.848;23.034;2023-04-29T15:59:48;48.13;;;18.85;;
7989;SDS011;4040;42.848;23.034;2023-04-29T16:05:36;39.92;;;19.30;;
7989;SDS011;4040;42.848;23.034;2023-04-29T16:11:25;26.00;;;12.05;;
7989;SDS011;4040;42.848;23.034;2023-04-29T16:17:15;8.95;;;4.38;;
7989;SDS011;4040;42.848;23.034;2023-04-29T16:23:04;10.65;;;6.07;;
7989;SDS011;4040;42.848;23.034;2023-04-29T16:28:53;2.08;;;1.88;;
7989;SDS011;4040;42.848;23.034;2023-04-29T16:34:43;7.10;;;3.50;;
7989;SDS011;4040;42.848;23.034;2023-04-29T16:44:54;13.65;;;7.95;;
7989;SDS011;4040;42.848;23.034;2023-04-29T16:50:44;10.43;;;6.95;;
7989;SDS011;4040;42.848;23.034;2023-04-29T16:56:35;32.35;;;17.90;;
7989;SDS011;4040;42.848;23.034;2023-04-29T17:02:24;12.98;;;6.78;;
7989;SDS011;4040;42.848;23.034;2023-04-29T17:08:14;10.75;;;6.10;;
7989;SDS011;4040;42.848;23.034;2023-04-29T17:14:03;18.08;;;10.75;;
7989;SDS011;4040;42.848;23.034;2023-04-29T17:19:52;12.73;;;7.30;;
7989;SDS011;4040;42.848;23.034;2023-04-29T17:25:43;20.52;;;10.57;;
7989;SDS011;4040;42.848;23.034;2023-04-29T17:31:32;14.30;;;8.13;;
7989;SDS011;4040;42.848;23.034;2023-04-29T17:37:30;9.48;;;5.30;;
7989;SDS011;4040;42.848;23.034;2023-04-29T17:47:42;6.95;;;3.63;;
7989;SDS011;4040;42.848;23.034;2023-04-29T17:53:31;16.52;;;9.40;;
7989;SDS011;4040;42.848;23.034;2023-04-29T17:59:20;29.00;;;14.93;;
7989;SDS011;4040;42.848;23.034;2023-04-29T18:05:11;21.45;;;10.38;;
7989;SDS011;4040;42.848;23.034;2023-04-29T18:11:00;22.25;;;10.55;;
7989;SDS011;4040;42.848;23.034;2023-04-29T18:16:49;31.55;;;7.43;;
7989;SDS011;4040;42.848;23.034;2023-04-29T18:22:40;37.47;;;18.38;;
7989;SDS011;4040;42.848;23.034;2023-04-29T18:28:28;33.20;;;19.02;;
7989;SDS011;4040;42.848;23.034;2023-04-29T18:34:17;27.20;;;14.73;;
7989;SDS011;4040;42.848;23.034;2023-04-29T18:40:11;10.65;;;6.43;;
7989;SDS011;4040;42.848;23.034;2023-04-29T18:50:25;20.45;;;11.73;;
7989;SDS011;4040;42.848;23.034;2023-04-29T18:56:16;15.25;;;9.68;;
7989;SDS011;4040;42.848;23.034;2023-04-29T19:02:04;15.57;;;8.25;;
7989;SDS011;4040;42.848;23.034;2023-04-29T19:07:53;33.88;;;17.98;;
7989;SDS011;4040;42.848;23.034;2023-04-29T19:13:44;28.33;;;17.47;;
7989;SDS011;4040;42.848;23.034;2023-04-29T19:19:33;51.70;;;22.67;;
7989;SDS011;4040;42.848;23.034;2023-04-29T19:25:21;11.95;;;7.18;;
7989;SDS011;4040;42.848;23.034;2023-04-29T19:31:23;10.55;;;7.15;;
7989;SDS011;4040;42.848;23.034;2023-04-29T19:37:12;41.37;;;19.73;;
7989;SDS011;4040;42.848;23.034;2023-04-29T19:43:01;20.80;;;10.60;;
7989;SDS011;4040;42.848;23.034;2023-04-29T19:53:14;17.83;;;9.23;;
7989;SDS011;4040;42.848;23.034;2023-04-29T19:59:03;25.47;;;13.50;;
7989;SDS011;4040;42.848;23.034;2023-04-29T20:04:52;15.67;;;9.13;;
7989;SDS011;4040;42.848;23.034;2023-04-29T20:10:42;30.00;;;15.40;;
7989;SDS011;4040;42.848;23.034;2023-04-29T20:16:31;36.03;;;18.40;;
7989;SDS011;4040;42.848;23.034;2023-04-29T20:22:20;31.70;;;14.73;;
7989;SDS011;4040;42.848;23.034;2023-04-29T20:28:11;59.17;;;26.10;;
7989;SDS011;4040;42.848;23.034;2023-04-29T20:34:00;25.03;;;11.67;;
7989;SDS011;4040;42.848;23.034;2023-04-29T20:39:49;111.57;;;45.40;;
7989;SDS011;4040;42.848;23.034;2023-04-29T20:45:39;95.23;;;35.00;;
7989;SDS011;4040;42.848;23.034;2023-04-29T20:55:50;15.03;;;7.17;;
7989;SDS011;4040;42.848;23.034;2023-04-29T21:01:40;19.27;;;11.27;;
7989;SDS011;4040;42.848;23.034;2023-04-29T21:07:28;43.10;;;19.97;;
7989;SDS011;4040;42.848;23.034;2023-04-29T21:13:17;15.77;;;7.80;;
7989;SDS011;4040;42.848;23.034;2023-04-29T21:19:07;6.97;;;4.30;;
7989;SDS011;4040;42.848;23.034;2023-04-29T21:24:57;22.03;;;10.93;;
7989;SDS011;4040;42.848;23.034;2023-04-29T21:30:46;22.67;;;12.40;;
7989;SDS011;4040;42.848;23.034;2023-04-29T21:36:36;34.30;;;14.57;;
7989;SDS011;4040;42.848;23.034;2023-04-29T21:42:25;35.73;;;15.33;;
7989;SDS011;4040;42.848;23.034;2023-04-29T21:48:14;41.50;;;17.53;;
7989;SDS011;4040;42.848;23.034;2023-04-29T21:58:29;13.07;;;6.40;;
7989;SDS011;4040;42.848;23.034;2023-04-29T22:08:30;17.47;;;7.83;;
7989;SDS011;4040;42.848;23.034;2023-04-29T22:14:18;54.90;;;21.60;;
7989;SDS011;4040;42.848;23.034;2023-04-29T22:20:09;13.27;;;6.40;;
7989;SDS011;4040;42.848;23.034;2023-04-29T22:26:00;19.77;;;8.83;;
7989;SDS011;4040;42.848;23.034;2023-04-29T22:31:49;20.57;;;10.60;;
7989;SDS011;4040;42.848;23.034;2023-04-29T22:37:38;7.80;;;4.20;;
7989;SDS011;4040;42.848;23.034;2023-04-29T22:43:28;7.87;;;5.30;;
7989;SDS011;4040;42.848;23.034;2023-04-29T22:49:17;17.30;;;9.80;;
7989;SDS011;4040;42.848;23.034;2023-04-29T22:55:06;12.43;;;6.37;;
7989;SDS011;4040;42.848;23.034;2023-04-29T23:00:56;9.60;;;5.07;;
7989;SDS011;4040;42.848;23.034;2023-04-29T23:03:24;6.10;;;4.40;;
7989;SDS011;4040;42.848;23.034;2023-04-29T23:09:14;5.93;;;4.57;;
7989;SDS011;4040;42.848;23.034;2023-04-29T23:15:03;19.97;;;8.77;;
7989;SDS011;4040;42.848;23.034;2023-04-29T23:20:53;22.87;;;8.80;;
7989;SDS011;4040;42.848;23.034;2023-04-29T23:26:43;22.23;;;9.50;;
7989;SDS011;4040;42.848;23.034;2023-04-29T23:32:32;15.30;;;8.47;;
7989;SDS011;4040;42.848;23.034;2023-04-29T23:38:22;7.07;;;4.40;;
7989;SDS011;4040;42.848;23.034;2023-04-29T23:44:10;14.23;;;7.73;;
7989;SDS011;4040;42.848;23.034;2023-04-29T23:49:59;12.47;;;5.80;;
7989;SDS011;4040;42.848;23.034;2023-04-29T23:55:49;6.63;;;4.50;;
